createdAt,value
2023-02-19T00:01:44.433Z,79.86
2023-02-19T00:04:16.483Z,80.00
2023-02-19T00:06:44.230Z,79.78
2023-02-19T00:09:12.959Z,79.28
2023-02-19T00:11:39.858Z,79.48
2023-02-19T00:14:06.767Z,79.53
2023-02-19T00:16:39.297Z,79.41
2023-02-19T00:19:08.659Z,79.90
2023-02-19T00:21:35.032Z,79.20
2023-02-19T00:24:03.680Z,79.18
2023-02-19T00:26:31.639Z,79.27
2023-02-19T00:28:58.622Z,78.97
2023-02-19T00:31:33.839Z,78.91
2023-02-19T00:34:03.163Z,78.90
2023-02-19T00:36:30.682Z,79.19
2023-02-19T00:38:57.330Z,78.96
2023-02-19T00:41:24.327Z,79.04
2023-02-19T00:43:57.586Z,79.14
2023-02-19T00:46:26.802Z,79.69
2023-02-19T00:48:53.404Z,79.65
2023-02-19T00:51:21.868Z,80.02
2023-02-19T00:53:48.417Z,79.64
2023-02-19T00:56:16.017Z,79.66
2023-02-19T00:58:42.705Z,79.29
2023-02-19T01:01:09.472Z,79.29
2023-02-19T01:03:36.877Z,79.29
2023-02-19T01:06:04.700Z,79.46
2023-02-19T01:08:31.456Z,79.44
2023-02-19T01:10:58.555Z,79.60
2023-02-19T01:13:25.058Z,79.55
2023-02-19T01:15:51.457Z,79.16
2023-02-19T01:18:17.830Z,79.42
2023-02-19T01:20:44.947Z,79.10
2023-02-19T01:23:12.729Z,79.11
2023-02-19T01:25:40.059Z,79.06
2023-02-19T01:28:06.639Z,79.52
2023-02-19T01:30:37.311Z,80.76
2023-02-19T01:33:08.053Z,81.35
2023-02-19T01:35:38.113Z,81.76
2023-02-19T01:38:04.679Z,81.75
2023-02-19T01:40:31.046Z,82.47
2023-02-19T01:42:57.401Z,83.23
2023-02-19T01:45:25.659Z,83.62
2023-02-19T01:48:04.405Z,84.26
2023-02-19T01:50:35.327Z,84.22
2023-02-19T01:53:05.347Z,84.41
2023-02-19T01:55:32.932Z,84.16
2023-02-19T01:58:01.693Z,84.79
2023-02-19T02:00:28.368Z,84.60
2023-02-19T02:02:57.885Z,85.10
2023-02-19T02:05:41.499Z,85.15
2023-02-19T02:08:27.154Z,85.42
2023-02-19T02:10:54.904Z,85.48
2023-02-19T02:13:21.598Z,85.70
2023-02-19T02:15:55.065Z,85.99
2023-02-19T02:18:52.712Z,86.34
2023-02-19T02:21:28.098Z,86.66
2023-02-19T02:24:24.195Z,86.70
2023-02-19T02:27:15.207Z,86.31
2023-02-19T02:30:17.525Z,86.36
2023-02-19T02:32:54.348Z,86.92
2023-02-19T02:35:25.602Z,87.19
2023-02-19T02:37:56.342Z,86.97
2023-02-19T02:40:23.403Z,87.18
2023-02-19T02:42:49.756Z,87.20
2023-02-19T02:45:37.995Z,87.81
2023-02-19T02:48:10.476Z,88.16
2023-02-19T02:50:42.969Z,88.33
2023-02-19T02:53:36.193Z,88.49
2023-02-19T02:56:03.859Z,88.57
2023-02-19T02:58:33.522Z,88.45
2023-02-19T03:01:21.120Z,88.52
2023-02-19T03:03:53.497Z,88.91
2023-02-19T03:06:23.490Z,89.08
2023-02-19T03:09:08.538Z,89.53
2023-02-19T03:11:57.190Z,89.31
2023-02-19T03:14:50.604Z,89.41
2023-02-19T03:17:57.970Z,89.46
2023-02-19T03:20:25.015Z,89.75
2023-02-19T03:22:52.796Z,90.00
2023-02-19T03:25:42.409Z,89.77
2023-02-19T03:28:12.303Z,89.37
2023-02-19T03:30:45.190Z,90.18
2023-02-19T03:33:15.825Z,90.01
2023-02-19T03:35:47.362Z,89.99
2023-02-19T03:38:27.745Z,89.48
2023-02-19T03:41:10.533Z,89.94
2023-02-19T03:43:45.258Z,89.99
2023-02-19T03:46:23.376Z,88.99
2023-02-19T03:49:03.706Z,89.08
2023-02-19T03:51:39.110Z,88.80
2023-02-19T03:54:32.668Z,88.79
2023-02-19T03:57:18.633Z,88.73
2023-02-19T04:00:05.555Z,88.41
2023-02-19T04:02:41.996Z,88.71
2023-02-19T04:05:18.547Z,88.06
2023-02-19T04:07:48.824Z,87.57
2023-02-19T04:10:17.761Z,87.71
2023-02-19T04:12:50.233Z,87.22
2023-02-19T04:15:23.257Z,87.31
2023-02-19T04:18:00.305Z,87.72
2023-02-19T04:20:30.362Z,88.44
2023-02-19T04:22:57.573Z,88.87
2023-02-19T04:25:26.126Z,88.77
2023-02-19T04:27:53.041Z,89.28
2023-02-19T04:30:19.602Z,89.27
2023-02-19T04:32:46.032Z,89.35
2023-02-19T04:35:12.396Z,88.89
2023-02-19T04:37:39.002Z,89.67
2023-02-19T04:40:05.833Z,90.08
2023-02-19T04:42:32.299Z,89.98
2023-02-19T04:44:58.749Z,90.03
2023-02-19T04:47:25.199Z,90.28
2023-02-19T04:49:51.831Z,90.08
2023-02-19T04:52:18.198Z,90.23
2023-02-19T04:54:44.566Z,90.99
2023-02-19T04:57:11.188Z,90.86
2023-02-19T04:59:37.541Z,91.39
2023-02-19T05:02:03.929Z,91.19
2023-02-19T05:04:30.383Z,91.54
2023-02-19T05:06:56.963Z,91.14
2023-02-19T05:09:23.520Z,92.05
2023-02-19T05:11:49.857Z,92.61
2023-02-19T05:14:17.139Z,93.23
2023-02-19T05:16:43.529Z,93.43
2023-02-19T05:19:13.596Z,93.71
2023-02-19T05:21:40.598Z,94.05
2023-02-19T05:24:07.237Z,93.84
2023-02-19T05:26:33.972Z,92.20
2023-02-19T05:29:01.476Z,93.00
2023-02-19T05:31:28.051Z,92.67
2023-02-19T05:33:57.416Z,91.42
2023-02-19T05:36:24.135Z,91.51
2023-02-19T05:38:57.007Z,91.83
2023-02-19T05:41:26.603Z,93.25
2023-02-19T05:43:53.791Z,93.62
2023-02-19T05:46:22.916Z,94.18
2023-02-19T05:48:51.046Z,94.27
2023-02-19T05:51:20.625Z,93.95
2023-02-19T05:53:47.645Z,92.81
2023-02-19T05:56:27.321Z,92.79
2023-02-19T05:58:54.971Z,93.01
2023-02-19T06:01:24.769Z,93.01
2023-02-19T06:03:51.475Z,92.49
2023-02-19T06:06:19.488Z,92.52
2023-02-19T06:08:47.609Z,92.57
2023-02-19T06:11:14.573Z,91.86
2023-02-19T06:13:41.054Z,91.56
2023-02-19T06:16:08.689Z,91.23
2023-02-19T06:18:35.528Z,91.46
2023-02-19T06:21:03.204Z,91.29
2023-02-19T06:23:30.364Z,90.49
2023-02-19T06:26:07.253Z,90.26
2023-02-19T06:28:33.640Z,90.49
2023-02-19T06:31:00.050Z,89.85
2023-02-19T06:33:27.816Z,89.80
2023-02-19T06:35:54.638Z,89.43
2023-02-19T06:38:22.014Z,89.25
2023-02-19T06:40:48.372Z,89.60
2023-02-19T06:43:14.761Z,89.66
2023-02-19T06:45:41.140Z,88.58
2023-02-19T06:48:07.482Z,89.39
2023-02-19T06:50:34.005Z,88.87
2023-02-19T06:53:00.377Z,89.94
2023-02-19T06:55:26.932Z,89.57
2023-02-19T06:57:53.431Z,90.12
2023-02-19T07:00:19.943Z,90.52
2023-02-19T07:02:46.299Z,90.29
2023-02-19T07:05:12.639Z,90.85
2023-02-19T07:07:38.985Z,90.75
2023-02-19T07:10:05.757Z,91.32
2023-02-19T07:12:32.149Z,91.74
2023-02-19T07:14:58.493Z,90.48
2023-02-19T07:17:24.817Z,91.58
2023-02-19T07:19:51.483Z,92.07
2023-02-19T07:22:19.048Z,92.24
2023-02-19T07:24:47.972Z,92.87
2023-02-19T07:27:14.503Z,93.56
2023-02-19T07:29:40.914Z,93.12
2023-02-19T07:32:07.325Z,92.75
2023-02-19T07:34:33.714Z,93.52
2023-02-19T07:37:00.092Z,92.74
2023-02-19T07:39:26.538Z,92.15
2023-02-19T07:41:52.913Z,91.02
2023-02-19T07:44:19.268Z,90.36
2023-02-19T07:46:45.677Z,90.53
2023-02-19T07:49:12.029Z,91.04
2023-02-19T07:51:39.852Z,90.40
2023-02-19T07:54:06.445Z,91.10
2023-02-19T07:56:32.794Z,90.60
2023-02-19T07:59:00.344Z,90.63
2023-02-19T08:01:45.568Z,90.03
2023-02-19T08:04:14.455Z,89.80
2023-02-19T08:06:41.750Z,90.20
2023-02-19T08:09:08.794Z,88.83
2023-02-19T08:11:53.818Z,88.46
2023-02-19T08:14:23.877Z,88.87
2023-02-19T08:16:51.286Z,88.49
2023-02-19T08:19:18.305Z,89.90
2023-02-19T08:21:44.673Z,90.23
2023-02-19T08:24:11.062Z,90.65
2023-02-19T08:26:37.837Z,90.17
2023-02-19T08:29:05.450Z,90.44
2023-02-19T08:31:33.416Z,89.75
2023-02-19T08:33:59.989Z,90.82
2023-02-19T08:36:26.349Z,90.84
2023-02-19T08:38:52.702Z,90.23
2023-02-19T08:41:19.023Z,91.35
2023-02-19T08:43:45.451Z,91.43
2023-02-19T08:46:13.300Z,90.68
2023-02-19T08:48:40.569Z,90.08
2023-02-19T08:51:10.022Z,91.28
2023-02-19T08:53:38.571Z,90.39
2023-02-19T08:56:13.970Z,90.89
2023-02-19T08:58:40.602Z,88.51
2023-02-19T09:01:11.999Z,88.74
2023-02-19T09:03:39.101Z,90.43
2023-02-19T09:06:05.741Z,90.35
2023-02-19T09:08:32.157Z,90.97
2023-02-19T09:11:03.564Z,90.58
2023-02-19T09:13:30.050Z,91.15
2023-02-19T09:15:57.082Z,91.08
2023-02-19T09:18:24.428Z,91.21
2023-02-19T09:20:50.953Z,91.02
2023-02-19T09:23:17.274Z,90.09
2023-02-19T09:25:43.748Z,90.12
2023-02-19T09:28:10.160Z,89.53
2023-02-19T09:30:36.581Z,89.15
2023-02-19T09:33:05.524Z,88.87
2023-02-19T09:35:31.884Z,88.50
2023-02-19T09:38:00.588Z,88.97
2023-02-19T09:40:27.012Z,88.74
2023-02-19T09:42:53.363Z,89.30
2023-02-19T09:45:23.944Z,88.92
2023-02-19T09:47:54.401Z,89.62
2023-02-19T09:50:24.300Z,89.29
2023-02-19T09:52:58.170Z,90.19
2023-02-19T09:55:38.968Z,87.86
2023-02-19T09:58:25.605Z,87.80
2023-02-19T10:00:53.585Z,87.07
2023-02-19T10:03:41.191Z,87.78
2023-02-19T10:06:21.726Z,85.17
2023-02-19T10:08:50.920Z,85.09
2023-02-19T10:11:18.467Z,84.94
2023-02-19T10:14:01.545Z,86.92
2023-02-19T10:16:29.239Z,85.66
2023-02-19T10:18:56.509Z,83.84
2023-02-19T10:21:27.247Z,84.77
2023-02-19T10:23:57.786Z,86.13
2023-02-19T10:26:24.548Z,86.76
2023-02-19T10:28:50.919Z,86.92
2023-02-19T10:31:21.217Z,86.36
2023-02-19T10:34:01.995Z,84.41
2023-02-19T10:36:32.623Z,85.83
2023-02-19T10:39:01.117Z,85.25
2023-02-19T10:41:28.595Z,83.33
2023-02-19T10:44:07.738Z,83.67
2023-02-19T10:46:37.246Z,84.41
2023-02-19T10:49:16.975Z,83.48
2023-02-19T10:51:43.954Z,81.38
2023-02-19T10:54:20.668Z,81.21
2023-02-19T10:56:47.065Z,82.25
2023-02-19T10:59:19.297Z,82.57
2023-02-19T11:02:03.224Z,84.92
2023-02-19T11:04:35.473Z,83.68
2023-02-19T11:07:16.878Z,84.01
2023-02-19T11:09:46.297Z,84.14
2023-02-19T11:12:25.660Z,83.38
2023-02-19T11:14:52.011Z,82.51
2023-02-19T11:17:27.096Z,80.95
2023-02-19T11:20:07.489Z,81.98
2023-02-19T11:22:39.002Z,80.13
2023-02-19T11:25:19.951Z,80.77
2023-02-19T11:28:22.714Z,79.77
2023-02-19T11:30:49.055Z,80.85
2023-02-19T11:33:24.451Z,79.72
2023-02-19T11:35:55.222Z,79.97
2023-02-19T11:38:21.794Z,80.75
2023-02-19T11:40:55.716Z,80.75
2023-02-19T11:43:48.658Z,79.55
2023-02-19T11:46:24.193Z,79.31
2023-02-19T11:49:21.209Z,78.97
2023-02-19T11:52:19.556Z,79.43
2023-02-19T11:55:01.220Z,77.97
2023-02-19T11:57:39.668Z,78.04
2023-02-19T12:00:26.233Z,79.23
2023-02-19T12:03:16.460Z,79.75
2023-02-19T12:05:48.656Z,77.67
2023-02-19T12:08:44.503Z,78.25
2023-02-19T12:11:53.492Z,73.35
2023-02-19T12:14:46.989Z,76.22
2023-02-19T12:17:47.736Z,76.68
2023-02-19T12:20:26.056Z,75.58
2023-02-19T12:23:20.452Z,75.13
2023-02-19T12:25:57.683Z,76.38
2023-02-19T12:28:29.736Z,75.36
2023-02-19T12:31:09.398Z,73.94
2023-02-19T12:33:47.880Z,72.65
2023-02-19T12:36:19.395Z,73.93
2023-02-19T12:39:10.367Z,73.30
2023-02-19T12:44:21.911Z,74.62
2023-02-19T12:46:56.563Z,73.51
2023-02-19T12:49:48.110Z,74.31
2023-02-19T12:52:26.538Z,73.44
2023-02-19T12:54:56.175Z,73.09
2023-02-19T12:57:36.868Z,73.11
2023-02-19T13:00:30.719Z,73.08
2023-02-19T13:03:05.931Z,71.40
2023-02-19T13:05:55.677Z,72.12
2023-02-19T13:08:34.105Z,71.55
2023-02-19T13:11:10.743Z,70.67
2023-02-19T13:13:48.471Z,70.78
2023-02-19T13:16:19.035Z,69.78
2023-02-19T13:18:52.093Z,72.15
2023-02-19T13:21:40.150Z,68.25
2023-02-19T13:24:14.620Z,69.11
2023-02-19T13:27:05.302Z,70.29
2023-02-19T13:29:58.122Z,70.99
2023-02-19T13:32:49.109Z,70.61
2023-02-19T13:35:25.222Z,71.25
2023-02-19T13:37:54.586Z,70.36
2023-02-19T13:40:33.178Z,71.19
2023-02-19T13:43:05.563Z,70.45
2023-02-19T13:45:41.184Z,70.69
2023-02-19T13:48:31.725Z,69.70
2023-02-19T13:51:16.894Z,68.81
2023-02-19T13:53:44.535Z,68.13
2023-02-19T13:56:29.439Z,69.15
2023-02-19T13:59:13.023Z,68.80
2023-02-19T14:01:51.658Z,68.38
2023-02-19T14:04:44.299Z,67.84
2023-02-19T14:07:10.593Z,68.71
2023-02-19T14:09:45.911Z,68.63
2023-02-19T14:12:16.279Z,69.16
2023-02-19T14:14:47.461Z,68.97
2023-02-19T14:17:39.201Z,69.16
2023-02-19T14:20:08.532Z,68.36
2023-02-19T14:22:52.067Z,67.61
2023-02-19T14:25:28.626Z,67.96
2023-02-19T14:28:17.818Z,68.40
2023-02-19T14:30:53.781Z,68.79
2023-02-19T14:33:43.340Z,68.93
2023-02-19T14:36:29.670Z,69.08
2023-02-19T14:39:02.619Z,67.75
2023-02-19T14:41:33.626Z,68.58
2023-02-19T14:44:02.800Z,68.57
2023-02-19T14:46:43.956Z,68.96
2023-02-19T14:49:25.449Z,69.05
2023-02-19T14:51:56.604Z,68.96
2023-02-19T14:54:36.865Z,67.92
2023-02-19T14:57:04.915Z,69.09
2023-02-19T14:59:31.344Z,68.10
2023-02-19T15:02:13.128Z,68.35
2023-02-19T15:04:40.244Z,69.22
2023-02-19T15:07:10.226Z,69.33
2023-02-19T15:09:44.211Z,68.30
2023-02-19T15:12:17.125Z,66.37
2023-02-19T15:14:45.374Z,68.04
2023-02-19T15:17:20.542Z,68.12
2023-02-19T15:19:46.977Z,68.53
2023-02-19T15:22:19.716Z,67.01
2023-02-19T15:24:48.489Z,67.67
2023-02-19T15:27:19.877Z,67.49
2023-02-19T15:29:53.215Z,68.48
2023-02-19T15:32:26.751Z,68.47
2023-02-19T15:34:58.426Z,67.82
2023-02-19T15:37:28.183Z,67.90
2023-02-19T15:39:55.619Z,67.77
2023-02-19T15:42:28.324Z,67.91
2023-02-19T15:45:03.990Z,67.20
2023-02-19T15:47:49.785Z,67.50
2023-02-19T15:50:28.516Z,67.36
2023-02-19T15:53:14.519Z,68.20
2023-02-19T15:55:45.423Z,68.02
2023-02-19T15:58:23.462Z,67.92
2023-02-19T16:00:53.129Z,66.87
2023-02-19T16:03:22.084Z,67.51
2023-02-19T16:06:10.553Z,68.09
2023-02-19T16:08:45.661Z,68.85
2023-02-19T16:11:24.203Z,68.32
2023-02-19T16:13:51.758Z,68.73
2023-02-19T16:16:27.154Z,69.27
2023-02-19T16:18:53.999Z,69.85
2023-02-19T16:21:23.311Z,70.07
2023-02-19T16:23:54.747Z,70.81
2023-02-19T16:26:21.639Z,69.86
2023-02-19T16:28:52.434Z,70.95
2023-02-19T16:31:21.632Z,70.88
2023-02-19T16:33:49.945Z,71.24
2023-02-19T16:36:22.681Z,71.68
2023-02-19T16:38:58.984Z,71.96
2023-02-19T16:41:25.382Z,72.48
2023-02-19T16:43:51.737Z,72.23
2023-02-19T16:46:18.141Z,71.66
2023-02-19T16:48:44.569Z,72.51
2023-02-19T16:51:25.227Z,72.65
2023-02-19T16:53:51.614Z,73.02
2023-02-19T16:56:22.687Z,72.80
2023-02-19T16:58:50.170Z,72.13
2023-02-19T17:01:17.128Z,71.69
2023-02-19T17:03:45.010Z,71.92
2023-02-19T17:06:12.187Z,71.99
2023-02-19T17:08:42.231Z,72.17
2023-02-19T17:11:14.635Z,71.55
2023-02-19T17:13:42.333Z,71.74
2023-02-19T17:16:16.923Z,71.40
2023-02-19T17:18:43.345Z,70.92
2023-02-19T17:21:35.984Z,71.84
2023-02-19T17:24:03.603Z,72.10
2023-02-19T17:26:31.788Z,72.74
2023-02-19T17:28:59.705Z,72.17
2023-02-19T17:31:26.994Z,71.88
2023-02-19T17:33:53.855Z,72.27
2023-02-19T17:36:23.703Z,72.51
2023-02-19T17:38:50.235Z,72.98
2023-02-19T17:41:16.713Z,72.44
2023-02-19T17:43:44.380Z,72.62
2023-02-19T17:46:15.759Z,72.70
2023-02-19T17:48:42.249Z,72.28
2023-02-19T17:51:08.678Z,72.58
2023-02-19T17:53:35.032Z,72.71
2023-02-19T17:56:01.763Z,72.44
2023-02-19T17:58:28.132Z,72.77
2023-02-19T18:00:54.555Z,72.65
2023-02-19T18:03:20.912Z,72.91
2023-02-19T18:05:47.341Z,73.04
2023-02-19T18:08:14.045Z,72.91
2023-02-19T18:10:40.471Z,73.58
2023-02-19T18:13:06.922Z,73.75
2023-02-19T18:15:33.453Z,74.03
2023-02-19T18:17:59.863Z,74.28
2023-02-19T18:20:28.508Z,74.43
2023-02-19T18:22:56.399Z,74.79
2023-02-19T18:25:23.671Z,75.07
2023-02-19T18:27:50.765Z,75.40
2023-02-19T18:30:19.198Z,75.91
2023-02-19T18:32:48.527Z,75.89
2023-02-19T18:35:16.774Z,75.33
2023-02-19T18:37:43.154Z,76.31
2023-02-19T18:40:10.422Z,75.68
2023-02-19T18:42:36.779Z,76.11
2023-02-19T18:45:03.962Z,75.51
2023-02-19T18:47:30.560Z,75.66
2023-02-19T18:49:58.474Z,76.11
2023-02-19T18:52:26.331Z,75.90
2023-02-19T18:54:55.048Z,76.34
2023-02-19T18:57:22.813Z,76.93
2023-02-19T18:59:49.301Z,76.50
2023-02-19T19:02:17.159Z,76.15
2023-02-19T19:04:43.521Z,75.52
2023-02-19T19:07:10.782Z,76.60
2023-02-19T19:09:37.143Z,75.73
2023-02-19T19:12:03.791Z,76.17
2023-02-19T19:14:30.365Z,76.42
2023-02-19T19:16:56.872Z,77.20
2023-02-19T19:19:23.256Z,76.97
2023-02-19T19:21:58.129Z,77.15
2023-02-19T19:24:25.152Z,77.16
2023-02-19T19:26:52.840Z,77.38
2023-02-19T19:29:21.973Z,77.70
2023-02-19T19:31:49.206Z,77.83
2023-02-19T19:34:16.316Z,78.10
2023-02-19T19:36:42.783Z,78.64
2023-02-19T19:39:09.328Z,78.68
2023-02-19T19:41:35.915Z,78.57
2023-02-19T19:44:04.466Z,78.15
2023-02-19T19:46:31.043Z,77.97
2023-02-19T19:48:57.446Z,77.98
2023-02-19T19:51:24.112Z,77.75
2023-02-19T19:53:50.481Z,78.08
2023-02-19T19:56:17.462Z,78.04
2023-02-19T19:58:43.803Z,78.26
2023-02-19T20:01:10.576Z,78.65
2023-02-19T20:03:37.959Z,77.58
2023-02-19T20:06:04.697Z,78.00
2023-02-19T20:08:31.066Z,78.22
2023-02-19T20:10:57.438Z,78.12
2023-02-19T20:13:24.689Z,78.69
2023-02-19T20:15:53.987Z,78.36
2023-02-19T20:18:21.446Z,78.43
2023-02-19T20:20:47.847Z,78.58
2023-02-19T20:23:14.217Z,78.35
2023-02-19T20:25:40.572Z,78.27
2023-02-19T20:28:06.959Z,78.69
2023-02-19T20:30:33.402Z,78.50
2023-02-19T20:32:59.941Z,78.56
2023-02-19T20:35:28.579Z,78.37
2023-02-19T20:37:55.573Z,78.77
2023-02-19T20:40:27.222Z,78.85
2023-02-19T20:42:53.865Z,78.68
2023-02-19T20:45:20.304Z,79.68
2023-02-19T20:47:46.757Z,79.31
2023-02-19T20:50:13.339Z,79.18
2023-02-19T20:52:39.692Z,79.24
2023-02-19T20:55:06.610Z,79.65
2023-02-19T20:57:33.280Z,79.85
2023-02-19T20:59:59.635Z,79.91
2023-02-19T21:02:29.374Z,80.15
2023-02-19T21:04:56.648Z,80.22
2023-02-19T21:07:24.422Z,80.58
2023-02-19T21:09:52.003Z,80.56
2023-02-19T21:12:19.803Z,80.77
2023-02-19T21:14:46.592Z,80.88
2023-02-19T21:17:12.967Z,80.69
2023-02-19T21:19:39.392Z,80.80
2023-02-19T21:22:06.171Z,80.65
2023-02-19T21:24:35.132Z,80.77
2023-02-19T21:27:01.560Z,81.05
2023-02-19T21:29:28.078Z,80.97
2023-02-19T21:31:56.333Z,80.67
2023-02-19T21:34:25.366Z,80.49
2023-02-19T21:36:52.172Z,80.29
2023-02-19T21:39:21.706Z,80.41
2023-02-19T21:41:48.802Z,79.98
2023-02-19T21:44:15.633Z,80.36
2023-02-19T21:46:42.281Z,80.98
2023-02-19T21:49:09.066Z,80.36
2023-02-19T21:51:38.902Z,80.66
2023-02-19T21:54:05.441Z,80.27
2023-02-19T21:56:35.801Z,80.50
2023-02-19T21:59:02.580Z,80.12
2023-02-19T22:01:34.911Z,80.48
2023-02-19T22:04:01.487Z,80.08
2023-02-19T22:06:30.517Z,79.83
2023-02-19T22:08:57.959Z,80.65
2023-02-19T22:11:24.369Z,80.81
2023-02-19T22:13:50.985Z,80.38
2023-02-19T22:16:17.767Z,79.85
2023-02-19T22:18:55.162Z,80.21
2023-02-19T22:21:24.651Z,79.89
2023-02-19T22:23:52.748Z,80.55
2023-02-19T22:26:37.787Z,80.07
2023-02-19T22:29:07.163Z,80.57
2023-02-19T22:31:34.727Z,81.15
2023-02-19T22:34:01.359Z,80.47
2023-02-19T22:36:33.257Z,80.06
2023-02-19T22:39:00.334Z,79.55
2023-02-19T22:41:27.179Z,79.76
2023-02-19T22:43:58.450Z,79.46
2023-02-19T22:46:27.128Z,79.99
2023-02-19T22:48:53.499Z,80.32
2023-02-19T22:51:22.445Z,80.43
2023-02-19T22:53:54.708Z,80.22
2023-02-19T22:56:24.465Z,80.61
2023-02-19T22:58:51.144Z,80.39
2023-02-19T23:01:18.801Z,79.69
2023-02-19T23:03:45.915Z,80.54
2023-02-19T23:06:12.547Z,80.41
2023-02-19T23:08:39.085Z,80.60
2023-02-19T23:11:05.429Z,79.89
2023-02-19T23:13:31.791Z,80.55
2023-02-19T23:15:59.501Z,80.46
2023-02-19T23:18:27.004Z,80.75
2023-02-19T23:20:53.359Z,80.67
2023-02-19T23:23:19.773Z,80.14
2023-02-19T23:25:46.151Z,80.55
2023-02-19T23:28:12.548Z,80.25
2023-02-19T23:30:39.122Z,80.61
2023-02-19T23:33:05.538Z,80.60
2023-02-19T23:35:31.964Z,80.70
2023-02-19T23:37:58.392Z,81.11
2023-02-19T23:40:24.743Z,81.68
2023-02-19T23:42:51.075Z,81.60
2023-02-19T23:45:17.496Z,81.53
2023-02-19T23:47:43.864Z,80.94
2023-02-19T23:50:10.270Z,81.44
2023-02-19T23:52:36.691Z,81.85
2023-02-19T23:55:03.064Z,81.87
2023-02-19T23:57:29.398Z,81.72
2023-02-19T23:59:56.099Z,82.08
